createdAt,value
2018-07-20T00:00:05.314Z,0.00
2018-07-20T00:01:05.327Z,0.00
2018-07-20T00:02:05.362Z,0.00
2018-07-20T00:03:05.381Z,0.00
2018-07-20T00:04:05.383Z,0.00
2018-07-20T00:05:05.410Z,0.00
2018-07-20T00:06:05.421Z,0.00
2018-07-20T00:07:05.442Z,0.00
2018-07-20T00:08:05.486Z,0.00
2018-07-20T00:09:05.486Z,0.00
2018-07-20T00:10:05.516Z,0.00
2018-07-20T00:11:05.543Z,0.00
2018-07-20T00:12:05.544Z,0.00
2018-07-20T00:13:05.590Z,0.00
2018-07-20T00:14:05.604Z,0.00
2018-07-20T00:15:05.607Z,0.00
2018-07-20T00:16:05.625Z,0.00
2018-07-20T00:17:05.655Z,0.00
2018-07-20T00:18:05.668Z,0.00
2018-07-20T00:19:05.685Z,0.00
2018-07-20T00:20:05.715Z,0.00
2018-07-20T00:21:05.723Z,0.00
2018-07-20T00:22:05.769Z,0.00
2018-07-20T00:23:05.775Z,0.00
2018-07-20T00:24:05.780Z,0.00
2018-07-20T00:25:05.801Z,0.00
2018-07-20T00:26:05.830Z,0.00
2018-07-20T00:27:05.849Z,0.00
2018-07-20T00:28:05.867Z,0.00
2018-07-20T00:29:05.884Z,0.00
2018-07-20T00:30:05.899Z,0.00
2018-07-20T00:31:05.931Z,0.00
2018-07-20T00:32:05.944Z,0.00
2018-07-20T00:33:05.968Z,0.00
2018-07-20T00:34:05.986Z,0.00
2018-07-20T00:35:06.001Z,0.00
2018-07-20T00:36:06.016Z,0.00
2018-07-20T00:37:06.041Z,0.00
2018-07-20T00:38:06.060Z,0.00
2018-07-20T00:39:06.080Z,0.00
2018-07-20T00:40:06.100Z,0.00
2018-07-20T00:41:06.114Z,0.00
2018-07-20T00:42:06.144Z,0.00
2018-07-20T00:43:06.157Z,0.00
2018-07-20T00:44:06.180Z,0.00
2018-07-20T00:45:06.206Z,0.00
2018-07-20T00:46:06.216Z,0.00
2018-07-20T00:47:06.247Z,0.00
2018-07-20T00:48:06.267Z,0.00
2018-07-20T00:49:06.275Z,0.00
2018-07-20T00:50:06.294Z,0.00
2018-07-20T00:51:06.312Z,0.00
2018-07-20T00:52:06.337Z,0.00
2018-07-20T00:53:06.353Z,0.00
2018-07-20T00:54:06.371Z,0.00
2018-07-20T00:55:06.396Z,0.00
2018-07-20T00:56:06.410Z,0.00
2018-07-20T00:57:06.438Z,0.00
2018-07-20T00:58:06.466Z,0.00
2018-07-20T00:59:06.475Z,0.00
2018-07-20T01:00:06.493Z,0.00
2018-07-20T01:01:06.512Z,0.00
2018-07-20T01:02:06.530Z,0.00
2018-07-20T01:03:06.554Z,0.00
2018-07-20T01:04:06.589Z,0.00
2018-07-20T01:05:06.592Z,0.00
2018-07-20T01:06:06.603Z,0.00
2018-07-20T01:07:06.644Z,0.00
2018-07-20T01:08:06.648Z,0.00
2018-07-20T01:09:06.666Z,0.00
2018-07-20T01:10:06.691Z,0.00
2018-07-20T01:11:06.712Z,0.00
2018-07-20T01:12:06.727Z,0.00
2018-07-20T01:13:06.747Z,0.00
2018-07-20T01:14:06.763Z,0.00
2018-07-20T01:15:06.786Z,0.00
2018-07-20T01:16:06.807Z,0.00
2018-07-20T01:17:06.820Z,0.00
2018-07-20T01:18:06.850Z,0.00
2018-07-20T01:19:06.861Z,0.00
2018-07-20T01:20:06.880Z,0.00
2018-07-20T01:21:06.903Z,0.00
2018-07-20T01:22:06.941Z,0.00
2018-07-20T01:23:06.943Z,0.00
2018-07-20T01:24:06.977Z,0.00
2018-07-20T01:25:06.978Z,0.00
2018-07-20T01:26:07.004Z,0.00
2018-07-20T01:27:07.017Z,0.00
2018-07-20T01:28:07.037Z,0.00
2018-07-20T01:29:07.055Z,0.00
2018-07-20T01:30:07.085Z,0.00
2018-07-20T01:31:07.103Z,0.00
2018-07-20T01:32:07.114Z,0.00
2018-07-20T01:33:07.139Z,0.00
2018-07-20T01:34:07.162Z,0.00
2018-07-20T01:35:07.186Z,0.00
2018-07-20T01:36:07.192Z,0.00
2018-07-20T01:37:07.215Z,0.00
2018-07-20T01:38:07.235Z,0.00
2018-07-20T01:39:07.252Z,0.00
2018-07-20T01:40:07.277Z,0.00
2018-07-20T01:41:07.297Z,0.00
2018-07-20T01:42:07.311Z,0.00
2018-07-20T01:43:07.336Z,0.00
2018-07-20T01:44:07.353Z,0.00
2018-07-20T01:45:07.385Z,0.00
2018-07-20T01:46:07.394Z,0.00
2018-07-20T01:47:07.411Z,0.00
2018-07-20T01:48:07.430Z,0.00
2018-07-20T01:49:07.452Z,0.00
2018-07-20T01:50:07.479Z,0.00
2018-07-20T01:51:07.485Z,0.00
2018-07-20T01:52:07.503Z,0.00
2018-07-20T01:53:07.526Z,0.00
2018-07-20T01:54:07.560Z,0.00
2018-07-20T01:55:07.564Z,0.00
2018-07-20T01:56:07.590Z,0.00
2018-07-20T01:57:07.607Z,0.00
2018-07-20T01:58:07.629Z,0.00
2018-07-20T01:59:07.644Z,0.00
2018-07-20T02:00:07.661Z,0.00
2018-07-20T02:01:07.685Z,0.00
2018-07-20T02:02:07.712Z,0.00
2018-07-20T02:03:07.721Z,0.00
2018-07-20T02:04:07.747Z,0.00
2018-07-20T02:05:07.759Z,0.00
2018-07-20T02:06:07.781Z,0.00
2018-07-20T02:07:07.792Z,0.00
2018-07-20T02:08:07.822Z,0.00
2018-07-20T02:09:07.834Z,0.00
2018-07-20T02:10:07.854Z,0.00
2018-07-20T02:11:07.889Z,0.00
2018-07-20T02:12:07.903Z,0.00
2018-07-20T02:13:07.917Z,0.00
2018-07-20T02:14:07.933Z,0.00
2018-07-20T02:15:07.966Z,0.00
2018-07-20T02:16:07.985Z,0.00
2018-07-20T02:17:07.997Z,0.00
2018-07-20T02:18:08.020Z,0.00
2018-07-20T02:19:08.025Z,0.00
2018-07-20T02:20:08.049Z,0.00
2018-07-20T02:21:08.065Z,0.00
2018-07-20T02:22:08.082Z,0.00
2018-07-20T02:23:08.105Z,0.00
2018-07-20T02:24:08.135Z,0.00
2018-07-20T02:25:08.142Z,0.00
2018-07-20T02:26:08.165Z,0.00
2018-07-20T02:27:08.182Z,0.00
2018-07-20T02:28:08.210Z,0.00
2018-07-20T02:29:08.224Z,0.00
2018-07-20T02:30:08.255Z,4.00
2018-07-20T02:31:08.266Z,4.00
2018-07-20T02:32:08.291Z,4.00
2018-07-20T02:33:08.301Z,4.00
2018-07-20T02:34:08.315Z,4.00
2018-07-20T02:35:08.342Z,4.00
2018-07-20T02:36:08.362Z,4.00
2018-07-20T02:37:08.379Z,0.00
2018-07-20T02:38:08.398Z,0.00
2018-07-20T02:39:08.411Z,0.00
2018-07-20T02:40:08.439Z,4.00
2018-07-20T02:41:08.468Z,4.00
2018-07-20T02:42:08.478Z,4.00
2018-07-20T02:43:08.489Z,4.00
2018-07-20T02:44:08.514Z,4.00
2018-07-20T02:45:08.538Z,4.00
2018-07-20T02:46:08.546Z,8.00
2018-07-20T02:47:08.565Z,4.00
2018-07-20T02:48:08.582Z,8.00
2018-07-20T02:49:08.609Z,8.00
2018-07-20T02:50:08.626Z,8.00
2018-07-20T02:51:08.648Z,8.00
2018-07-20T02:52:08.666Z,12.00
2018-07-20T02:53:08.686Z,8.00
2018-07-20T02:54:08.702Z,12.00
2018-07-20T02:55:08.732Z,16.00
2018-07-20T02:56:08.737Z,16.00
2018-07-20T02:57:08.767Z,20.00
2018-07-20T02:58:08.779Z,20.00
2018-07-20T02:59:08.800Z,24.00
2018-07-20T03:00:08.816Z,28.00
2018-07-20T03:01:08.832Z,28.00
2018-07-20T03:02:08.872Z,32.00
2018-07-20T03:03:08.872Z,36.00
2018-07-20T03:04:08.899Z,40.00
2018-07-20T03:05:08.913Z,48.00
2018-07-20T03:06:08.940Z,52.00
2018-07-20T03:07:08.956Z,56.00
2018-07-20T03:08:08.973Z,64.00
2018-07-20T03:09:09.005Z,68.00
2018-07-20T03:10:09.007Z,80.00
2018-07-20T03:11:09.028Z,88.00
2018-07-20T03:12:09.054Z,96.00
2018-07-20T03:13:09.070Z,104.00
2018-07-20T03:14:09.084Z,116.00
2018-07-20T03:15:09.102Z,124.00
2018-07-20T03:16:09.132Z,136.00
2018-07-20T03:17:09.145Z,152.00
2018-07-20T03:18:09.179Z,160.00
2018-07-20T03:19:09.183Z,176.00
2018-07-20T03:20:09.212Z,196.00
2018-07-20T03:21:09.266Z,212.00
2018-07-20T03:22:09.244Z,224.00
2018-07-20T03:23:09.268Z,248.00
2018-07-20T03:24:09.282Z,264.00
2018-07-20T03:25:09.300Z,288.00
2018-07-20T03:26:09.324Z,308.00
2018-07-20T03:27:09.345Z,332.00
2018-07-20T03:28:09.362Z,360.00
2018-07-20T03:29:09.382Z,388.00
2018-07-20T03:30:09.394Z,416.00
2018-07-20T03:31:09.420Z,448.00
2018-07-20T03:32:09.436Z,484.00
2018-07-20T03:33:09.452Z,520.00
2018-07-20T03:34:09.472Z,560.00
2018-07-20T03:35:09.497Z,596.00
2018-07-20T03:36:09.507Z,636.00
2018-07-20T03:37:09.526Z,680.00
2018-07-20T03:38:09.543Z,724.00
2018-07-20T03:39:09.576Z,768.00
2018-07-20T03:40:09.590Z,816.00
2018-07-20T03:41:09.614Z,860.00
2018-07-20T03:42:09.619Z,916.00
2018-07-20T03:43:09.660Z,964.00
2018-07-20T03:44:09.692Z,1028.00
2018-07-20T03:45:09.677Z,1084.00
2018-07-20T03:46:09.702Z,1152.00
2018-07-20T03:47:09.719Z,1212.00
2018-07-20T03:48:09.737Z,1280.00
2018-07-20T03:49:09.777Z,1352.00
2018-07-20T03:50:09.776Z,1420.00
2018-07-20T03:51:09.807Z,1496.00
2018-07-20T03:52:09.839Z,1580.00
2018-07-20T03:53:09.851Z,1676.00
2018-07-20T03:54:09.860Z,1776.00
2018-07-20T03:55:09.875Z,1880.00
2018-07-20T03:56:09.898Z,1988.00
2018-07-20T03:57:09.937Z,2100.00
2018-07-20T03:58:09.943Z,2208.00
2018-07-20T03:59:09.948Z,2320.00
2018-07-20T04:00:09.980Z,2444.00
2018-07-20T04:01:09.995Z,2564.00
2018-07-20T04:02:10.029Z,2696.00
2018-07-20T04:03:10.033Z,2824.00
2018-07-20T04:04:10.056Z,2960.00
2018-07-20T04:05:10.066Z,3104.00
2018-07-20T04:06:10.087Z,3256.00
2018-07-20T04:07:10.119Z,3404.00
2018-07-20T04:08:10.129Z,3560.00
2018-07-20T04:09:10.195Z,3712.00
2018-07-20T04:10:10.219Z,3860.00
2018-07-20T04:11:10.190Z,4000.00
2018-07-20T04:12:10.199Z,4148.00
2018-07-20T04:13:10.221Z,4324.00
2018-07-20T04:14:10.251Z,4536.00
2018-07-20T04:15:10.258Z,4752.00
2018-07-20T04:16:10.277Z,4956.00
2018-07-20T04:17:10.299Z,5156.00
2018-07-20T04:18:10.316Z,5344.00
2018-07-20T04:19:10.350Z,5516.00
2018-07-20T04:20:10.353Z,5684.00
2018-07-20T04:21:10.371Z,5824.00
2018-07-20T04:22:10.415Z,5964.00
2018-07-20T04:23:10.412Z,6100.00
2018-07-20T04:24:10.451Z,6240.00
2018-07-20T04:25:10.465Z,6408.00
2018-07-20T04:26:10.473Z,6596.00
2018-07-20T04:27:10.495Z,6796.00
2018-07-20T04:28:10.529Z,7000.00
2018-07-20T04:29:10.529Z,7220.00
2018-07-20T04:30:10.552Z,7476.00
2018-07-20T04:31:10.571Z,7720.00
2018-07-20T04:32:10.589Z,7932.00
2018-07-20T04:33:10.617Z,8092.00
2018-07-20T04:34:10.638Z,8200.00
2018-07-20T04:35:10.656Z,8304.00
2018-07-20T04:36:10.670Z,8424.00
2018-07-20T04:37:10.702Z,8572.00
2018-07-20T04:38:10.720Z,8728.00
2018-07-20T04:39:10.742Z,8888.00
2018-07-20T04:40:10.754Z,9068.00
2018-07-20T04:41:10.782Z,9240.00
2018-07-20T04:42:10.794Z,9412.00
2018-07-20T04:43:10.808Z,9572.00
2018-07-20T04:44:10.825Z,9728.00
2018-07-20T04:45:10.854Z,9876.00
2018-07-20T04:46:10.881Z,10036.00
2018-07-20T04:47:10.888Z,10200.00
2018-07-20T04:48:10.913Z,10376.00
2018-07-20T04:49:10.935Z,10564.00
2018-07-20T04:50:10.948Z,10764.00
2018-07-20T04:51:10.970Z,10968.00
2018-07-20T04:52:10.991Z,11180.00
2018-07-20T04:53:11.018Z,11396.00
2018-07-20T04:54:11.029Z,11608.00
2018-07-20T04:55:11.053Z,11828.00
2018-07-20T04:56:11.083Z,12060.00
2018-07-20T04:57:11.091Z,12316.00
2018-07-20T04:58:11.113Z,12584.00
2018-07-20T04:59:11.151Z,14588.00
2018-07-20T05:00:11.191Z,18528.00
2018-07-20T05:01:11.199Z,19392.00
2018-07-20T05:02:11.205Z,19776.00
2018-07-20T05:03:11.210Z,20064.00
2018-07-20T05:04:11.236Z,19808.00
2018-07-20T05:05:11.256Z,20512.00
2018-07-20T05:06:11.277Z,20864.00
2018-07-20T05:07:11.344Z,21408.00
2018-07-20T05:08:11.339Z,21312.00
2018-07-20T05:09:11.346Z,22272.00
2018-07-20T05:10:11.367Z,22496.00
2018-07-20T05:11:11.394Z,22112.00
2018-07-20T05:12:11.410Z,21792.00
2018-07-20T05:13:11.440Z,21472.00
2018-07-20T05:14:11.472Z,21824.00
2018-07-20T05:15:11.476Z,22144.00
2018-07-20T05:16:11.508Z,23072.00
2018-07-20T05:17:11.537Z,24448.00
2018-07-20T05:18:11.548Z,25568.00
2018-07-20T05:19:11.570Z,25792.00
2018-07-20T05:20:11.593Z,25664.00
2018-07-20T05:21:11.614Z,26432.00
2018-07-20T05:22:11.641Z,26656.00
2018-07-20T05:23:11.675Z,26912.00
2018-07-20T05:24:11.733Z,28512.00
2018-07-20T05:25:11.711Z,29312.00
2018-07-20T05:26:11.746Z,29664.00
2018-07-20T05:27:11.758Z,30144.00
2018-07-20T05:28:11.782Z,30592.00
2018-07-20T05:29:11.815Z,31360.00
2018-07-20T05:30:11.844Z,31520.00
2018-07-20T05:31:11.885Z,31808.00
2018-07-20T05:32:11.886Z,32480.00
2018-07-20T05:33:11.914Z,32384.00
2018-07-20T05:34:11.962Z,32288.00
2018-07-20T05:35:11.964Z,32576.00
2018-07-20T05:36:11.977Z,32768.00
2018-07-20T05:37:12.008Z,33056.00
2018-07-20T05:38:12.089Z,33696.00
2018-07-20T05:39:12.059Z,33280.00
2018-07-20T05:40:12.085Z,32640.00
2018-07-20T05:41:12.106Z,29888.00
2018-07-20T05:42:12.133Z,29472.00
2018-07-20T05:43:12.166Z,31904.00
2018-07-20T05:44:12.185Z,32000.00
2018-07-20T05:45:12.203Z,32512.00
2018-07-20T05:46:12.240Z,32448.00
2018-07-20T05:47:12.255Z,33120.00
2018-07-20T05:48:12.294Z,33312.00
2018-07-20T05:49:12.310Z,32512.00
2018-07-20T05:50:12.331Z,33184.00
2018-07-20T05:51:12.366Z,34144.00
2018-07-20T05:52:12.396Z,35008.00
2018-07-20T05:53:12.412Z,35328.00
2018-07-20T05:54:12.441Z,34624.00
2018-07-20T05:55:12.486Z,34656.00
2018-07-20T05:56:12.506Z,34528.00
2018-07-20T05:57:12.523Z,33440.00
2018-07-20T05:58:12.538Z,33568.00
2018-07-20T05:59:12.571Z,34272.00
2018-07-20T06:00:12.620Z,34368.00
2018-07-20T06:01:12.621Z,34272.00
2018-07-20T06:02:12.653Z,34048.00
2018-07-20T06:03:12.680Z,33376.00
2018-07-20T06:04:12.698Z,34272.00
2018-07-20T06:05:12.749Z,33568.00
2018-07-20T06:06:12.758Z,33696.00
2018-07-20T06:07:12.785Z,34144.00
2018-07-20T06:08:12.823Z,34368.00
2018-07-20T06:09:12.837Z,34336.00
2018-07-20T06:10:12.867Z,33920.00
2018-07-20T06:11:12.897Z,33984.00
2018-07-20T06:12:12.914Z,34176.00
2018-07-20T06:13:12.957Z,34304.00
2018-07-20T06:14:13.065Z,34112.00
2018-07-20T06:15:12.993Z,33984.00
2018-07-20T06:16:13.028Z,34336.00
2018-07-20T06:17:13.046Z,34400.00
2018-07-20T06:18:13.091Z,35104.00
2018-07-20T06:19:13.108Z,35840.00
2018-07-20T06:20:13.128Z,41824.00
2018-07-20T06:21:13.163Z,50240.00
2018-07-20T06:22:13.186Z,59520.00
2018-07-20T06:23:13.213Z,63232.00
2018-07-20T06:24:13.242Z,60480.00
2018-07-20T06:25:13.275Z,62432.00
2018-07-20T06:26:13.308Z,62720.00
2018-07-20T06:27:13.325Z,61248.00
2018-07-20T06:28:13.366Z,62880.00
2018-07-20T06:29:13.392Z,64384.00
2018-07-20T06:30:13.418Z,65344.00
2018-07-20T06:31:13.439Z,65280.00
2018-07-20T06:32:13.468Z,62304.00
2018-07-20T06:33:13.504Z,56000.00
2018-07-20T06:34:13.526Z,54496.00
2018-07-20T06:35:13.549Z,54208.00
2018-07-20T06:36:13.576Z,54304.00
2018-07-20T06:37:13.612Z,53248.00
2018-07-20T06:38:13.650Z,54880.00
2018-07-20T06:39:13.679Z,54976.00
2018-07-20T06:40:13.698Z,54528.00
2018-07-20T06:41:13.722Z,57024.00
2018-07-20T06:42:13.751Z,52352.00
2018-07-20T06:43:13.778Z,55456.00
2018-07-20T06:44:13.805Z,52480.00
2018-07-20T06:45:13.840Z,51584.00
2018-07-20T06:46:13.874Z,36544.00
2018-07-20T06:47:13.894Z,39008.00
2018-07-20T06:48:13.933Z,45728.00
2018-07-20T06:49:13.955Z,40192.00
2018-07-20T06:50:13.979Z,46656.00
2018-07-20T06:51:14.014Z,35552.00
2018-07-20T06:52:14.039Z,34272.00
2018-07-20T06:53:14.088Z,34592.00
2018-07-20T06:54:14.103Z,38368.00
2018-07-20T06:55:14.122Z,35232.00
2018-07-20T06:56:14.157Z,36160.00
2018-07-20T06:57:14.181Z,40160.00
2018-07-20T06:58:14.217Z,37056.00
2018-07-20T06:59:14.243Z,52736.00
2018-07-20T07:00:14.286Z,52000.00
2018-07-20T07:01:14.293Z,40480.00
2018-07-20T07:02:14.341Z,54592.00
2018-07-20T07:03:14.349Z,45280.00
2018-07-20T07:04:14.387Z,60800.00
2018-07-20T07:05:14.413Z,39616.00
2018-07-20T07:06:14.438Z,32832.00
2018-07-20T07:07:14.474Z,32864.00
2018-07-20T07:08:14.494Z,45088.00
2018-07-20T07:09:14.522Z,33120.00
2018-07-20T07:10:14.544Z,33696.00
2018-07-20T07:11:14.574Z,58336.00
2018-07-20T07:12:14.601Z,58080.00
2018-07-20T07:13:14.629Z,53984.00
2018-07-20T07:14:14.659Z,57984.00
2018-07-20T07:15:14.789Z,61376.00
2018-07-20T07:16:14.714Z,60704.00
2018-07-20T07:17:14.738Z,62016.00
2018-07-20T07:18:14.778Z,56896.00
2018-07-20T07:19:14.796Z,53024.00
2018-07-20T07:20:14.838Z,38048.00
2018-07-20T07:21:14.858Z,61984.00
2018-07-20T07:22:14.899Z,58624.00
2018-07-20T07:23:14.919Z,56384.00
2018-07-20T07:24:14.953Z,57184.00
2018-07-20T07:25:14.976Z,47296.00
2018-07-20T07:26:14.997Z,51200.00
2018-07-20T07:27:15.040Z,39680.00
2018-07-20T07:28:15.065Z,34816.00
2018-07-20T07:29:15.125Z,26560.00
2018-07-20T07:30:15.120Z,26176.00
2018-07-20T07:31:15.153Z,30592.00
2018-07-20T07:32:15.180Z,41088.00
2018-07-20T07:33:15.206Z,43104.00
2018-07-20T07:34:15.232Z,39104.00
2018-07-20T07:35:15.272Z,43488.00
2018-07-20T07:36:15.303Z,33760.00
2018-07-20T07:37:15.321Z,34560.00
2018-07-20T07:38:15.391Z,44672.00
2018-07-20T07:39:15.375Z,51712.00
2018-07-20T07:40:15.406Z,48160.00
2018-07-20T07:41:15.437Z,52448.00
2018-07-20T07:42:15.505Z,49760.00
2018-07-20T07:43:15.485Z,45280.00
2018-07-20T07:44:15.526Z,33664.00
2018-07-20T07:45:15.553Z,45248.00
2018-07-20T07:46:15.589Z,51040.00
2018-07-20T07:47:15.625Z,51808.00
2018-07-20T07:48:15.634Z,52032.00
2018-07-20T07:49:15.699Z,53728.00
2018-07-20T07:50:15.689Z,52864.00
2018-07-20T07:51:15.723Z,49952.00
2018-07-20T07:52:15.777Z,52032.00
2018-07-20T07:53:15.777Z,47680.00
2018-07-20T07:54:15.814Z,48544.00
2018-07-20T07:55:15.838Z,52544.00
2018-07-20T07:56:15.872Z,51552.00
2018-07-20T07:57:15.899Z,53952.00
2018-07-20T07:58:15.928Z,52896.00
2018-07-20T07:59:15.963Z,48992.00
2018-07-20T08:00:16.002Z,51424.00
2018-07-20T08:01:16.018Z,53664.00
2018-07-20T08:02:16.044Z,54144.00
2018-07-20T08:03:16.129Z,51168.00
2018-07-20T08:04:16.117Z,50528.00
2018-07-20T08:05:16.145Z,51424.00
2018-07-20T08:06:16.165Z,53344.00
2018-07-20T08:07:16.193Z,52992.00
2018-07-20T08:08:16.236Z,48480.00
2018-07-20T08:09:16.266Z,43456.00
2018-07-20T08:10:16.319Z,39584.00
2018-07-20T08:11:16.310Z,39360.00
2018-07-20T08:12:16.352Z,39904.00
2018-07-20T08:13:16.370Z,40768.00
2018-07-20T08:14:16.405Z,39008.00
2018-07-20T08:15:16.431Z,39232.00
2018-07-20T08:16:16.457Z,41824.00
2018-07-20T08:17:16.501Z,42976.00
2018-07-20T08:18:16.647Z,44128.00
2018-07-20T08:19:16.556Z,45920.00
2018-07-20T08:20:16.576Z,45440.00
2018-07-20T08:21:16.612Z,47104.00
2018-07-20T08:22:16.641Z,44672.00
2018-07-20T08:23:16.667Z,49728.00
2018-07-20T08:24:16.700Z,54016.00
2018-07-20T08:25:16.716Z,51872.00
2018-07-20T08:26:16.746Z,48128.00
2018-07-20T08:27:16.776Z,46560.00
2018-07-20T08:28:16.806Z,51712.00
2018-07-20T08:29:16.844Z,50240.00
2018-07-20T08:30:16.861Z,49824.00
2018-07-20T08:31:16.894Z,51072.00
2018-07-20T08:32:16.926Z,50944.00
2018-07-20T08:33:16.957Z,49088.00
2018-07-20T08:34:16.982Z,51808.00
2018-07-20T08:35:17.004Z,50528.00
2018-07-20T08:36:17.039Z,49568.00
2018-07-20T08:37:17.064Z,42336.00
2018-07-20T08:38:17.091Z,31264.00
2018-07-20T08:39:17.113Z,26976.00
2018-07-20T08:40:17.157Z,26720.00
2018-07-20T08:41:17.294Z,26752.00
2018-07-20T08:42:17.220Z,26976.00
2018-07-20T08:43:17.237Z,27168.00
2018-07-20T08:44:17.254Z,27360.00
2018-07-20T08:45:17.293Z,27488.00
2018-07-20T08:46:17.317Z,27552.00
2018-07-20T08:47:17.341Z,27584.00
2018-07-20T08:48:17.365Z,27520.00
2018-07-20T08:49:17.403Z,27488.00
2018-07-20T08:50:17.437Z,27360.00
2018-07-20T08:51:17.448Z,27136.00
2018-07-20T08:52:17.498Z,26848.00
2018-07-20T08:53:17.500Z,26720.00
2018-07-20T08:54:17.537Z,26560.00
2018-07-20T08:55:17.573Z,26208.00
2018-07-20T08:56:17.579Z,25568.00
2018-07-20T08:57:17.616Z,24960.00
2018-07-20T08:58:17.633Z,24544.00
2018-07-20T08:59:17.664Z,24544.00
2018-07-20T09:00:17.693Z,24320.00
2018-07-20T09:01:17.713Z,24224.00
2018-07-20T09:02:17.740Z,24032.00
2018-07-20T09:03:17.773Z,23776.00
2018-07-20T09:04:17.796Z,23712.00
2018-07-20T09:05:17.820Z,23712.00
2018-07-20T09:06:17.877Z,23200.00
2018-07-20T09:07:17.893Z,22816.00
2018-07-20T09:08:17.902Z,22528.00
2018-07-20T09:09:17.929Z,22400.00
2018-07-20T09:10:17.969Z,22272.00
2018-07-20T09:11:17.991Z,21952.00
2018-07-20T09:12:18.005Z,21536.00
2018-07-20T09:13:18.038Z,20864.00
2018-07-20T09:14:18.061Z,20320.00
2018-07-20T09:15:18.104Z,20000.00
2018-07-20T09:16:18.112Z,19680.00
2018-07-20T09:17:18.173Z,19328.00
2018-07-20T09:18:18.165Z,19040.00
2018-07-20T09:19:18.214Z,18944.00
2018-07-20T09:20:18.217Z,19168.00
2018-07-20T09:21:18.281Z,19488.00
2018-07-20T09:22:18.300Z,19872.00
2018-07-20T09:23:18.296Z,20096.00
2018-07-20T09:24:18.348Z,20032.00
2018-07-20T09:25:18.348Z,19840.00
2018-07-20T09:26:18.368Z,19456.00
2018-07-20T09:27:18.396Z,19040.00
2018-07-20T09:28:18.420Z,18720.00
2018-07-20T09:29:18.442Z,18624.00
2018-07-20T09:30:18.470Z,18464.00
2018-07-20T09:31:18.494Z,18496.00
2018-07-20T09:32:18.530Z,18592.00
2018-07-20T09:33:18.562Z,18816.00
2018-07-20T09:34:18.598Z,19296.00
2018-07-20T09:35:18.598Z,19712.00
2018-07-20T09:36:18.627Z,20128.00
2018-07-20T09:37:18.652Z,20448.00
2018-07-20T09:38:18.681Z,20736.00
2018-07-20T09:39:18.709Z,20960.00
2018-07-20T09:40:18.727Z,21088.00
2018-07-20T09:41:18.756Z,21184.00
2018-07-20T09:42:18.780Z,21152.00
2018-07-20T09:43:18.807Z,20960.00
2018-07-20T09:44:18.865Z,20704.00
2018-07-20T09:45:18.890Z,20448.00
2018-07-20T09:46:18.896Z,20064.00
2018-07-20T09:47:18.903Z,19712.00
2018-07-20T09:48:18.931Z,19104.00
2018-07-20T09:49:18.951Z,18592.00
2018-07-20T09:50:18.984Z,18400.00
2018-07-20T09:51:19.012Z,17944.00
2018-07-20T09:52:19.036Z,17948.00
2018-07-20T09:53:19.059Z,18240.00
2018-07-20T09:54:19.088Z,18624.00
2018-07-20T09:55:19.107Z,19040.00
2018-07-20T09:56:19.146Z,19328.00
2018-07-20T09:57:19.162Z,19584.00
2018-07-20T09:58:19.198Z,19680.00
2018-07-20T09:59:19.212Z,19712.00
2018-07-20T10:00:19.245Z,19712.00
2018-07-20T10:01:19.280Z,19712.00
2018-07-20T10:02:19.285Z,19808.00
2018-07-20T10:03:19.329Z,19808.00
2018-07-20T10:04:19.340Z,19968.00
2018-07-20T10:05:19.384Z,20064.00
2018-07-20T10:06:19.397Z,20096.00
2018-07-20T10:07:19.418Z,20064.00
2018-07-20T10:08:19.449Z,19936.00
2018-07-20T10:09:19.471Z,19744.00
2018-07-20T10:10:19.498Z,19648.00
2018-07-20T10:11:19.533Z,19488.00
2018-07-20T10:12:19.553Z,19296.00
2018-07-20T10:13:19.573Z,19040.00
2018-07-20T10:14:19.598Z,18848.00
2018-07-20T10:15:19.626Z,18496.00
2018-07-20T10:16:19.648Z,18208.00
2018-07-20T10:17:19.676Z,17856.00
2018-07-20T10:18:19.705Z,17628.00
2018-07-20T10:19:19.729Z,17324.00
2018-07-20T10:20:19.759Z,17128.00
2018-07-20T10:21:19.777Z,16988.00
2018-07-20T10:22:19.808Z,16884.00
2018-07-20T10:23:19.836Z,16840.00
2018-07-20T10:24:19.867Z,16852.00
2018-07-20T10:25:19.886Z,16828.00
2018-07-20T10:26:19.912Z,16912.00
2018-07-20T10:27:19.950Z,16884.00
2018-07-20T10:28:19.962Z,16840.00
2018-07-20T10:29:20.013Z,16684.00
2018-07-20T10:30:20.021Z,16568.00
2018-07-20T10:31:20.039Z,16292.00
2018-07-20T10:32:20.080Z,15832.00
2018-07-20T10:33:20.100Z,15340.00
2018-07-20T10:34:20.116Z,15012.00
2018-07-20T10:35:20.145Z,14500.00
2018-07-20T10:36:20.180Z,14100.00
2018-07-20T10:37:20.215Z,13776.00
2018-07-20T10:38:20.224Z,13344.00
2018-07-20T10:39:20.246Z,13112.00
2018-07-20T10:40:20.270Z,12976.00
2018-07-20T10:41:20.305Z,12868.00
2018-07-20T10:42:20.334Z,12836.00
2018-07-20T10:43:20.348Z,12880.00
2018-07-20T10:44:20.399Z,12964.00
2018-07-20T10:45:20.411Z,13152.00
2018-07-20T10:46:20.458Z,13256.00
2018-07-20T10:47:20.460Z,13452.00
2018-07-20T10:48:20.476Z,13668.00
2018-07-20T10:49:20.521Z,13896.00
2018-07-20T10:50:20.533Z,14184.00
2018-07-20T10:51:20.559Z,14460.00
2018-07-20T10:52:20.607Z,14668.00
2018-07-20T10:53:20.611Z,14872.00
2018-07-20T10:54:20.634Z,15124.00
2018-07-20T10:55:20.662Z,15408.00
2018-07-20T10:56:20.708Z,15676.00
2018-07-20T10:57:20.705Z,15940.00
2018-07-20T10:58:20.743Z,16232.00
2018-07-20T10:59:20.761Z,16572.00
2018-07-20T11:00:20.796Z,17216.00
2018-07-20T11:01:20.874Z,17664.00
2018-07-20T11:02:20.845Z,17920.00
2018-07-20T11:03:20.858Z,18208.00
2018-07-20T11:04:20.894Z,18400.00
2018-07-20T11:05:20.918Z,18624.00
2018-07-20T11:06:20.947Z,18880.00
2018-07-20T11:07:20.963Z,19008.00
2018-07-20T11:08:21.002Z,19264.00
2018-07-20T11:09:21.030Z,19424.00
2018-07-20T11:10:21.046Z,19648.00
2018-07-20T11:11:21.066Z,19776.00
2018-07-20T11:12:21.099Z,19872.00
2018-07-20T11:13:21.131Z,19936.00
2018-07-20T11:14:21.139Z,20032.00
2018-07-20T11:15:21.189Z,20160.00
2018-07-20T11:16:21.208Z,20288.00
2018-07-20T11:17:21.235Z,20288.00
2018-07-20T11:18:21.247Z,20320.00
2018-07-20T11:19:21.273Z,20352.00
2018-07-20T11:20:21.342Z,20288.00
2018-07-20T11:21:21.328Z,20288.00
2018-07-20T11:22:21.348Z,20192.00
2018-07-20T11:23:21.379Z,20096.00
2018-07-20T11:24:21.404Z,19840.00
2018-07-20T11:25:21.430Z,19584.00
2018-07-20T11:26:21.455Z,19328.00
2018-07-20T11:27:21.484Z,19040.00
2018-07-20T11:28:21.506Z,18944.00
2018-07-20T11:29:21.541Z,18784.00
2018-07-20T11:30:21.561Z,18848.00
2018-07-20T11:31:21.584Z,18752.00
2018-07-20T11:32:21.623Z,18432.00
2018-07-20T11:33:21.638Z,18080.00
2018-07-20T11:34:21.667Z,17068.00
2018-07-20T11:35:21.707Z,17600.00
2018-07-20T11:36:21.737Z,17408.00
2018-07-20T11:37:21.746Z,16580.00
2018-07-20T11:38:21.792Z,16488.00
2018-07-20T11:39:21.807Z,16220.00
2018-07-20T11:40:21.827Z,16004.00
2018-07-20T11:41:21.858Z,16088.00
2018-07-20T11:42:21.889Z,15852.00
2018-07-20T11:43:21.916Z,15704.00
2018-07-20T11:44:21.935Z,15412.00
2018-07-20T11:45:21.957Z,15220.00
2018-07-20T11:46:21.987Z,15256.00
2018-07-20T11:47:22.022Z,15364.00
2018-07-20T11:48:22.043Z,15232.00
2018-07-20T11:49:22.071Z,15008.00
2018-07-20T11:50:22.107Z,14964.00
2018-07-20T11:51:22.145Z,14864.00
2018-07-20T11:52:22.177Z,14568.00
2018-07-20T11:53:22.187Z,14200.00
2018-07-20T11:54:22.198Z,14092.00
2018-07-20T11:55:22.228Z,13760.00
2018-07-20T11:56:22.257Z,13216.00
2018-07-20T11:57:22.282Z,13388.00
2018-07-20T11:58:22.305Z,13360.00
2018-07-20T11:59:22.338Z,13340.00
2018-07-20T12:00:22.354Z,13256.00
2018-07-20T12:01:22.407Z,13592.00
2018-07-20T12:02:22.412Z,13796.00
2018-07-20T12:03:22.431Z,13980.00
2018-07-20T12:04:22.465Z,14232.00
2018-07-20T12:05:22.486Z,14380.00
2018-07-20T12:06:22.518Z,14816.00
2018-07-20T12:07:22.546Z,15000.00
2018-07-20T12:08:22.564Z,15116.00
2018-07-20T12:09:22.591Z,15404.00
2018-07-20T12:10:22.620Z,15024.00